sensor_id;sensor_type;location;lat;lon;timestamp;pressure;altitude;pressure_sealevel;temperature;humidity
28606;BME280;46498;49.968;7.754;2022-08-25T00:00:22;97322.00;;;20.55;45.71
28606;BME280;46498;49.968;7.754;2022-08-25T00:05:28;97313.00;;;20.56;45.74
28606;BME280;46498;49.968;7.754;2022-08-25T00:10:33;97315.00;;;20.47;45.94
28606;BME280;46498;49.968;7.754;2022-08-25T00:15:35;97305.00;;;20.43;46.12
28606;BME280;46498;49.968;7.754;2022-08-25T00:20:36;97302.00;;;20.38;46.61
28606;BME280;46498;49.968;7.754;2022-08-25T00:25:40;97307.00;;;20.36;46.63
28606;BME280;46498;49.968;7.754;2022-08-25T00:30:42;97303.00;;;20.33;46.36
28606;BME280;46498;49.968;7.754;2022-08-25T00:35:43;97312.00;;;20.18;46.79
28606;BME280;46498;49.968;7.754;2022-08-25T00:40:45;97309.00;;;20.18;47.24
28606;BME280;46498;49.968;7.754;2022-08-25T00:45:46;97314.00;;;20.17;47.50
28606;BME280;46498;49.968;7.754;2022-08-25T00:50:48;97312.00;;;20.07;47.47
28606;BME280;46498;49.968;7.754;2022-08-25T00:55:49;97317.00;;;19.99;47.96
28606;BME280;46498;49.968;7.754;2022-08-25T01:00:53;97308.00;;;19.97;47.93
28606;BME280;46498;49.968;7.754;2022-08-25T01:05:55;97318.00;;;19.89;48.22
28606;BME280;46498;49.968;7.754;2022-08-25T01:11:03;97313.00;;;19.88;48.45
28606;BME280;46498;49.968;7.754;2022-08-25T01:16:05;97305.00;;;19.79;48.57
28606;BME280;46498;49.968;7.754;2022-08-25T01:21:06;97309.00;;;19.83;48.77
28606;BME280;46498;49.968;7.754;2022-08-25T01:26:16;97311.00;;;19.81;48.65
28606;BME280;46498;49.968;7.754;2022-08-25T01:31:18;97315.00;;;19.69;49.28
28606;BME280;46498;49.968;7.754;2022-08-25T01:36:26;97323.00;;;19.49;49.90
28606;BME280;46498;49.968;7.754;2022-08-25T01:52:18;97331.00;;;19.37;50.78
28606;BME280;46498;49.968;7.754;2022-08-25T01:57:21;97323.00;;;19.41;50.66
28606;BME280;46498;49.968;7.754;2022-08-25T02:02:23;97324.00;;;19.36;50.91
28606;BME280;46498;49.968;7.754;2022-08-25T02:07:26;97324.00;;;19.36;51.13
28606;BME280;46498;49.968;7.754;2022-08-25T02:12:27;97325.00;;;19.31;51.04
28606;BME280;46498;49.968;7.754;2022-08-25T02:17:32;97322.00;;;19.35;51.32
28606;BME280;46498;49.968;7.754;2022-08-25T02:22:34;97328.00;;;19.28;51.39
28606;BME280;46498;49.968;7.754;2022-08-25T02:27:34;97323.00;;;19.32;51.70
28606;BME280;46498;49.968;7.754;2022-08-25T02:32:35;97324.00;;;19.21;52.28
28606;BME280;46498;49.968;7.754;2022-08-25T02:37:36;97326.00;;;19.19;52.88
28606;BME280;46498;49.968;7.754;2022-08-25T02:42:37;97320.00;;;19.08;53.41
28606;BME280;46498;49.968;7.754;2022-08-25T02:47:40;97321.00;;;18.98;53.88
28606;BME280;46498;49.968;7.754;2022-08-25T02:52:41;97315.00;;;18.91;54.50
28606;BME280;46498;49.968;7.754;2022-08-25T02:57:42;97316.00;;;18.82;55.26
28606;BME280;46498;49.968;7.754;2022-08-25T03:02:43;97311.00;;;18.81;55.68
28606;BME280;46498;49.968;7.754;2022-08-25T03:07:44;97307.00;;;18.82;55.86
28606;BME280;46498;49.968;7.754;2022-08-25T03:12:45;97297.00;;;18.70;56.38
28606;BME280;46498;49.968;7.754;2022-08-25T03:17:47;97290.00;;;18.71;56.87
28606;BME280;46498;49.968;7.754;2022-08-25T03:22:51;97288.00;;;18.72;57.25
28606;BME280;46498;49.968;7.754;2022-08-25T03:27:52;97293.00;;;18.60;57.40
28606;BME280;46498;49.968;7.754;2022-08-25T03:32:53;97293.00;;;18.48;58.61
28606;BME280;46498;49.968;7.754;2022-08-25T03:37:55;97285.00;;;18.43;59.36
28606;BME280;46498;49.968;7.754;2022-08-25T03:42:56;97287.00;;;18.53;60.03
28606;BME280;46498;49.968;7.754;2022-08-25T03:47:57;97282.00;;;18.41;60.85
28606;BME280;46498;49.968;7.754;2022-08-25T03:52:58;97265.00;;;18.30;60.61
28606;BME280;46498;49.968;7.754;2022-08-25T03:57:58;97260.00;;;18.27;61.20
28606;BME280;46498;49.968;7.754;2022-08-25T04:02:59;97262.00;;;18.01;62.18
28606;BME280;46498;49.968;7.754;2022-08-25T04:08:01;97263.00;;;18.00;62.46
28606;BME280;46498;49.968;7.754;2022-08-25T04:13:02;97268.00;;;18.14;63.32
28606;BME280;46498;49.968;7.754;2022-08-25T04:18:03;97277.00;;;18.30;63.22
28606;BME280;46498;49.968;7.754;2022-08-25T04:23:04;97282.00;;;18.09;63.62
28606;BME280;46498;49.968;7.754;2022-08-25T04:28:05;97290.00;;;17.96;64.48
28606;BME280;46498;49.968;7.754;2022-08-25T04:33:07;97280.00;;;17.93;65.55
28606;BME280;46498;49.968;7.754;2022-08-25T04:38:08;97287.00;;;17.87;65.67
28606;BME280;46498;49.968;7.754;2022-08-25T04:43:08;97285.00;;;17.89;65.94
28606;BME280;46498;49.968;7.754;2022-08-25T04:48:09;97278.00;;;17.83;66.14
28606;BME280;46498;49.968;7.754;2022-08-25T04:53:10;97274.00;;;17.89;66.42
28606;BME280;46498;49.968;7.754;2022-08-25T04:58:13;97266.00;;;17.91;66.00
28606;BME280;46498;49.968;7.754;2022-08-25T05:03:17;97275.00;;;18.04;66.24
28606;BME280;46498;49.968;7.754;2022-08-25T05:08:18;97280.00;;;18.36;65.63
28606;BME280;46498;49.968;7.754;2022-08-25T05:13:23;97279.00;;;18.25;66.37
28606;BME280;46498;49.968;7.754;2022-08-25T05:18:28;97280.00;;;18.45;65.33
28606;BME280;46498;49.968;7.754;2022-08-25T05:23:30;97278.00;;;18.74;64.21
28606;BME280;46498;49.968;7.754;2022-08-25T05:28:32;97274.00;;;19.14;63.53
28606;BME280;46498;49.968;7.754;2022-08-25T05:33:33;97267.00;;;19.39;63.27
28606;BME280;46498;49.968;7.754;2022-08-25T05:38:35;97269.00;;;19.61;62.92
28606;BME280;46498;49.968;7.754;2022-08-25T05:43:39;97270.00;;;19.89;60.67
28606;BME280;46498;49.968;7.754;2022-08-25T05:48:40;97269.00;;;20.27;58.87
28606;BME280;46498;49.968;7.754;2022-08-25T05:53:43;97270.00;;;20.53;57.99
28606;BME280;46498;49.968;7.754;2022-08-25T05:58:46;97271.00;;;20.58;59.63
28606;BME280;46498;49.968;7.754;2022-08-25T06:03:48;97269.00;;;20.80;59.73
28606;BME280;46498;49.968;7.754;2022-08-25T06:08:49;97259.00;;;20.84;59.57
28606;BME280;46498;49.968;7.754;2022-08-25T06:13:51;97251.00;;;21.07;59.03
28606;BME280;46498;49.968;7.754;2022-08-25T06:18:51;97258.00;;;21.16;59.08
28606;BME280;46498;49.968;7.754;2022-08-25T06:23:52;97255.00;;;21.10;59.06
28606;BME280;46498;49.968;7.754;2022-08-25T06:28:53;97257.00;;;21.25;59.23
28606;BME280;46498;49.968;7.754;2022-08-25T06:33:54;97251.00;;;21.51;58.56
28606;BME280;46498;49.968;7.754;2022-08-25T06:38:55;97247.00;;;21.86;58.39
28606;BME280;46498;49.968;7.754;2022-08-25T06:43:56;97253.00;;;22.16;58.01
28606;BME280;46498;49.968;7.754;2022-08-25T06:49:06;97243.00;;;22.24;58.33
28606;BME280;46498;49.968;7.754;2022-08-25T06:54:08;97248.00;;;22.46;58.63
28606;BME280;46498;49.968;7.754;2022-08-25T06:59:12;97240.00;;;22.59;59.27
28606;BME280;46498;49.968;7.754;2022-08-25T07:04:13;97237.00;;;22.64;58.42
28606;BME280;46498;49.968;7.754;2022-08-25T07:09:15;97237.00;;;22.24;59.80
28606;BME280;46498;49.968;7.754;2022-08-25T07:14:17;97240.00;;;22.12;61.36
28606;BME280;46498;49.968;7.754;2022-08-25T07:19:18;97245.00;;;22.26;60.45
28606;BME280;46498;49.968;7.754;2022-08-25T07:24:21;97241.00;;;22.54;59.42
28606;BME280;46498;49.968;7.754;2022-08-25T07:29:25;97240.00;;;22.48;59.66
28606;BME280;46498;49.968;7.754;2022-08-25T07:34:33;97234.00;;;22.48;59.54
28606;BME280;46498;49.968;7.754;2022-08-25T07:39:53;97241.00;;;22.88;58.45
28606;BME280;46498;49.968;7.754;2022-08-25T07:44:55;97251.00;;;23.22;57.79
28606;BME280;46498;49.968;7.754;2022-08-25T07:49:56;97250.00;;;23.52;56.21
28606;BME280;46498;49.968;7.754;2022-08-25T07:54:58;97246.00;;;23.33;55.78
28606;BME280;46498;49.968;7.754;2022-08-25T07:59:59;97251.00;;;23.51;55.23
28606;BME280;46498;49.968;7.754;2022-08-25T08:05:00;97255.00;;;23.77;55.24
28606;BME280;46498;49.968;7.754;2022-08-25T08:10:04;97236.00;;;23.88;54.74
28606;BME280;46498;49.968;7.754;2022-08-25T08:15:42;97248.00;;;24.08;54.25
28606;BME280;46498;49.968;7.754;2022-08-25T08:20:45;97246.00;;;24.16;53.30
28606;BME280;46498;49.968;7.754;2022-08-25T08:25:46;97246.00;;;24.14;53.87
28606;BME280;46498;49.968;7.754;2022-08-25T08:30:47;97246.00;;;24.40;52.68
28606;BME280;46498;49.968;7.754;2022-08-25T08:36:12;97247.00;;;24.04;53.29
28606;BME280;46498;49.968;7.754;2022-08-25T08:41:42;97244.00;;;24.28;53.07
28606;BME280;46498;49.968;7.754;2022-08-25T08:54:31;97236.00;;;24.02;53.93
28606;BME280;46498;49.968;7.754;2022-08-25T08:59:47;97240.00;;;25.05;51.31
28606;BME280;46498;49.968;7.754;2022-08-25T09:04:53;97231.00;;;24.92;51.33
28606;BME280;46498;49.968;7.754;2022-08-25T09:09:57;97228.00;;;25.01;50.57
28606;BME280;46498;49.968;7.754;2022-08-25T09:17:10;97222.00;;;25.13;49.60
28606;BME280;46498;49.968;7.754;2022-08-25T09:29:14;97207.00;;;24.73;50.67
28606;BME280;46498;49.968;7.754;2022-08-25T09:34:21;97207.00;;;25.05;49.32
28606;BME280;46498;49.968;7.754;2022-08-25T09:39:23;97194.00;;;25.25;49.46
28606;BME280;46498;49.968;7.754;2022-08-25T09:44:33;97194.00;;;25.55;49.20
28606;BME280;46498;49.968;7.754;2022-08-25T09:49:42;97196.00;;;25.49;48.62
28606;BME280;46498;49.968;7.754;2022-08-25T09:54:43;97195.00;;;25.16;48.86
28606;BME280;46498;49.968;7.754;2022-08-25T09:59:48;97183.00;;;25.84;47.10
28606;BME280;46498;49.968;7.754;2022-08-25T10:04:58;97182.00;;;26.09;47.38
28606;BME280;46498;49.968;7.754;2022-08-25T10:10:02;97187.00;;;25.88;43.72
28606;BME280;46498;49.968;7.754;2022-08-25T10:15:24;97192.00;;;26.74;43.24
28606;BME280;46498;49.968;7.754;2022-08-25T10:20:31;97188.00;;;26.35;45.26
28606;BME280;46498;49.968;7.754;2022-08-25T10:25:42;97162.00;;;27.11;43.08
28606;BME280;46498;49.968;7.754;2022-08-25T10:42:22;97155.00;;;27.26;42.51
28606;BME280;46498;49.968;7.754;2022-08-25T10:47:47;97158.00;;;27.17;41.44
28606;BME280;46498;49.968;7.754;2022-08-25T10:53:27;97147.00;;;27.81;39.99
28606;BME280;46498;49.968;7.754;2022-08-25T10:59:11;97143.00;;;27.46;40.21
28606;BME280;46498;49.968;7.754;2022-08-25T11:04:22;97140.00;;;27.11;40.73
28606;BME280;46498;49.968;7.754;2022-08-25T11:09:33;97124.00;;;27.92;39.21
28606;BME280;46498;49.968;7.754;2022-08-25T11:14:54;97134.00;;;28.43;38.51
28606;BME280;46498;49.968;7.754;2022-08-25T11:20:04;97132.00;;;27.66;39.55
28606;BME280;46498;49.968;7.754;2022-08-25T11:25:27;97115.00;;;27.83;38.99
28606;BME280;46498;49.968;7.754;2022-08-25T11:30:29;97111.00;;;27.80;38.83
28606;BME280;46498;49.968;7.754;2022-08-25T11:35:48;97116.00;;;27.74;39.04
28606;BME280;46498;49.968;7.754;2022-08-25T11:41:24;97118.00;;;27.55;39.01
28606;BME280;46498;49.968;7.754;2022-08-25T11:48:13;97107.00;;;28.19;37.93
28606;BME280;46498;49.968;7.754;2022-08-25T11:53:37;97105.00;;;27.87;37.48
28606;BME280;46498;49.968;7.754;2022-08-25T11:58:50;97093.00;;;29.07;36.17
28606;BME280;46498;49.968;7.754;2022-08-25T12:03:52;97100.00;;;28.44;36.35
28606;BME280;46498;49.968;7.754;2022-08-25T12:09:26;97092.00;;;28.57;36.25
28606;BME280;46498;49.968;7.754;2022-08-25T12:14:40;97087.00;;;29.28;34.50
28606;BME280;46498;49.968;7.754;2022-08-25T12:19:52;97085.00;;;28.89;34.53
28606;BME280;46498;49.968;7.754;2022-08-25T12:24:54;97080.00;;;29.30;33.97
28606;BME280;46498;49.968;7.754;2022-08-25T12:40:57;97065.00;;;28.71;35.72
28606;BME280;46498;49.968;7.754;2022-08-25T12:59:55;97055.00;;;29.45;34.27
28606;BME280;46498;49.968;7.754;2022-08-25T13:06:04;97058.00;;;29.25;33.87
28606;BME280;46498;49.968;7.754;2022-08-25T13:11:28;97055.00;;;29.21;34.20
28606;BME280;46498;49.968;7.754;2022-08-25T13:16:32;97045.00;;;28.98;34.30
28606;BME280;46498;49.968;7.754;2022-08-25T13:21:41;97042.00;;;29.04;34.76
28606;BME280;46498;49.968;7.754;2022-08-25T13:26:42;97027.00;;;30.00;33.42
28606;BME280;46498;49.968;7.754;2022-08-25T13:31:55;97020.00;;;29.46;33.40
28606;BME280;46498;49.968;7.754;2022-08-25T13:37:07;97031.00;;;28.85;33.76
28606;BME280;46498;49.968;7.754;2022-08-25T13:42:30;97033.00;;;29.29;32.51
28606;BME280;46498;49.968;7.754;2022-08-25T13:47:39;97006.00;;;29.57;33.29
28606;BME280;46498;49.968;7.754;2022-08-25T13:52:53;97010.00;;;28.41;34.90
28606;BME280;46498;49.968;7.754;2022-08-25T13:57:57;97011.00;;;29.18;33.79
28606;BME280;46498;49.968;7.754;2022-08-25T14:03:00;97003.00;;;29.02;33.55
28606;BME280;46498;49.968;7.754;2022-08-25T14:08:05;97009.00;;;29.10;33.76
28606;BME280;46498;49.968;7.754;2022-08-25T14:13:31;97004.00;;;28.92;33.91
28606;BME280;46498;49.968;7.754;2022-08-25T14:18:33;97003.00;;;28.80;34.33
28606;BME280;46498;49.968;7.754;2022-08-25T14:23:37;96999.00;;;29.51;33.55
28606;BME280;46498;49.968;7.754;2022-08-25T14:28:39;96992.00;;;29.22;33.11
28606;BME280;46498;49.968;7.754;2022-08-25T14:33:54;96995.00;;;28.95;33.26
28606;BME280;46498;49.968;7.754;2022-08-25T14:38:57;96988.00;;;28.96;33.60
28606;BME280;46498;49.968;7.754;2022-08-25T14:44:02;96985.00;;;29.10;34.04
28606;BME280;46498;49.968;7.754;2022-08-25T14:49:08;96982.00;;;28.74;34.09
28606;BME280;46498;49.968;7.754;2022-08-25T14:54:12;96986.00;;;28.74;33.49
28606;BME280;46498;49.968;7.754;2022-08-25T14:59:14;96974.00;;;28.72;32.93
28606;BME280;46498;49.968;7.754;2022-08-25T15:04:21;96978.00;;;28.97;33.46
28606;BME280;46498;49.968;7.754;2022-08-25T15:09:26;96962.00;;;29.73;32.41
28606;BME280;46498;49.968;7.754;2022-08-25T15:14:34;96962.00;;;29.49;32.46
28606;BME280;46498;49.968;7.754;2022-08-25T15:19:35;96954.00;;;29.03;33.06
28606;BME280;46498;49.968;7.754;2022-08-25T15:24:37;96951.00;;;28.99;33.06
28606;BME280;46498;49.968;7.754;2022-08-25T15:29:39;96950.00;;;29.32;32.79
28606;BME280;46498;49.968;7.754;2022-08-25T15:34:41;96945.00;;;29.08;32.91
28606;BME280;46498;49.968;7.754;2022-08-25T15:39:44;96942.00;;;28.99;32.96
28606;BME280;46498;49.968;7.754;2022-08-25T15:44:47;96945.00;;;29.01;33.34
28606;BME280;46498;49.968;7.754;2022-08-25T15:50:03;96945.00;;;28.75;33.64
28606;BME280;46498;49.968;7.754;2022-08-25T15:55:05;96943.00;;;28.42;34.59
28606;BME280;46498;49.968;7.754;2022-08-25T16:00:07;96943.00;;;28.53;34.57
28606;BME280;46498;49.968;7.754;2022-08-25T16:05:10;96938.00;;;28.52;34.68
28606;BME280;46498;49.968;7.754;2022-08-25T16:10:13;96937.00;;;28.48;35.23
28606;BME280;46498;49.968;7.754;2022-08-25T16:15:14;96933.00;;;28.56;35.10
28606;BME280;46498;49.968;7.754;2022-08-25T16:20:15;96935.00;;;28.06;35.58
28606;BME280;46498;49.968;7.754;2022-08-25T16:25:18;96933.00;;;27.88;35.63
28606;BME280;46498;49.968;7.754;2022-08-25T16:30:20;96928.00;;;27.97;35.50
28606;BME280;46498;49.968;7.754;2022-08-25T16:35:21;96929.00;;;28.04;35.52
28606;BME280;46498;49.968;7.754;2022-08-25T16:40:22;96934.00;;;27.82;35.79
28606;BME280;46498;49.968;7.754;2022-08-25T16:45:26;96933.00;;;27.69;36.65
28606;BME280;46498;49.968;7.754;2022-08-25T16:50:28;96931.00;;;27.65;36.81
28606;BME280;46498;49.968;7.754;2022-08-25T16:55:30;96940.00;;;27.52;36.62
28606;BME280;46498;49.968;7.754;2022-08-25T17:00:40;96941.00;;;27.29;36.93
28606;BME280;46498;49.968;7.754;2022-08-25T17:05:44;96944.00;;;27.35;36.88
28606;BME280;46498;49.968;7.754;2022-08-25T17:10:45;96933.00;;;27.38;36.68
28606;BME280;46498;49.968;7.754;2022-08-25T17:15:47;96934.00;;;27.41;36.86
28606;BME280;46498;49.968;7.754;2022-08-25T17:21:02;96926.00;;;27.23;37.09
28606;BME280;46498;49.968;7.754;2022-08-25T17:26:05;96928.00;;;27.22;37.16
28606;BME280;46498;49.968;7.754;2022-08-25T17:31:07;96928.00;;;27.28;37.12
28606;BME280;46498;49.968;7.754;2022-08-25T17:36:08;96924.00;;;27.24;37.26
28606;BME280;46498;49.968;7.754;2022-08-25T17:41:09;96926.00;;;27.08;37.60
28606;BME280;46498;49.968;7.754;2022-08-25T17:46:11;96928.00;;;27.06;37.57
28606;BME280;46498;49.968;7.754;2022-08-25T17:51:13;96925.00;;;26.97;37.77
28606;BME280;46498;49.968;7.754;2022-08-25T17:56:19;96932.00;;;26.90;37.87
28606;BME280;46498;49.968;7.754;2022-08-25T18:01:29;96928.00;;;26.84;38.25
28606;BME280;46498;49.968;7.754;2022-08-25T18:06:31;96928.00;;;26.76;38.87
28606;BME280;46498;49.968;7.754;2022-08-25T18:11:32;96926.00;;;26.50;39.75
28606;BME280;46498;49.968;7.754;2022-08-25T18:16:33;96928.00;;;26.28;40.38
28606;BME280;46498;49.968;7.754;2022-08-25T18:21:34;96930.00;;;25.99;40.71
28606;BME280;46498;49.968;7.754;2022-08-25T18:26:35;96932.00;;;25.68;41.38
28606;BME280;46498;49.968;7.754;2022-08-25T18:31:36;96935.00;;;25.55;41.71
28606;BME280;46498;49.968;7.754;2022-08-25T18:36:37;96934.00;;;25.40;42.01
28606;BME280;46498;49.968;7.754;2022-08-25T18:41:40;96940.00;;;25.09;42.79
28606;BME280;46498;49.968;7.754;2022-08-25T18:46:42;96923.00;;;24.65;43.79
28606;BME280;46498;49.968;7.754;2022-08-25T18:51:47;96934.00;;;24.49;44.12
28606;BME280;46498;49.968;7.754;2022-08-25T18:56:48;96940.00;;;24.33;44.62
28606;BME280;46498;49.968;7.754;2022-08-25T19:01:50;96942.00;;;24.18;44.98
28606;BME280;46498;49.968;7.754;2022-08-25T19:06:52;96943.00;;;24.00;45.42
28606;BME280;46498;49.968;7.754;2022-08-25T19:11:53;96940.00;;;24.00;45.47
28606;BME280;46498;49.968;7.754;2022-08-25T19:16:55;96942.00;;;23.82;45.76
28606;BME280;46498;49.968;7.754;2022-08-25T19:21:58;96945.00;;;23.82;45.91
28606;BME280;46498;49.968;7.754;2022-08-25T19:26:59;96948.00;;;23.43;46.62
28606;BME280;46498;49.968;7.754;2022-08-25T19:32:02;96953.00;;;23.27;47.20
28606;BME280;46498;49.968;7.754;2022-08-25T19:37:05;96948.00;;;23.18;47.55
28606;BME280;46498;49.968;7.754;2022-08-25T19:42:06;96950.00;;;23.23;47.50
28606;BME280;46498;49.968;7.754;2022-08-25T19:47:08;96946.00;;;23.17;47.61
28606;BME280;46498;49.968;7.754;2022-08-25T19:52:13;96935.00;;;23.17;47.69
28606;BME280;46498;49.968;7.754;2022-08-25T19:57:17;96942.00;;;23.32;47.37
28606;BME280;46498;49.968;7.754;2022-08-25T20:02:36;96948.00;;;23.27;47.60
28606;BME280;46498;49.968;7.754;2022-08-25T20:07:37;96956.00;;;22.85;49.30
28606;BME280;46498;49.968;7.754;2022-08-25T20:12:38;96955.00;;;22.52;50.58
28606;BME280;46498;49.968;7.754;2022-08-25T20:17:40;96949.00;;;22.41;51.39
28606;BME280;46498;49.968;7.754;2022-08-25T20:22:42;96957.00;;;22.48;51.10
28606;BME280;46498;49.968;7.754;2022-08-25T20:27:46;96955.00;;;22.52;50.75
28606;BME280;46498;49.968;7.754;2022-08-25T20:32:49;96944.00;;;22.45;50.78
28606;BME280;46498;49.968;7.754;2022-08-25T20:37:50;96953.00;;;22.35;51.11
28606;BME280;46498;49.968;7.754;2022-08-25T20:42:54;96947.00;;;22.41;51.12
28606;BME280;46498;49.968;7.754;2022-08-25T20:47:55;96956.00;;;22.29;51.22
28606;BME280;46498;49.968;7.754;2022-08-25T20:52:56;96958.00;;;22.23;51.69
28606;BME280;46498;49.968;7.754;2022-08-25T20:57:58;96955.00;;;22.21;52.09
28606;BME280;46498;49.968;7.754;2022-08-25T21:02:59;96948.00;;;22.20;52.16
28606;BME280;46498;49.968;7.754;2022-08-25T21:08:01;96952.00;;;22.10;52.54
28606;BME280;46498;49.968;7.754;2022-08-25T21:13:02;96953.00;;;22.07;52.79
28606;BME280;46498;49.968;7.754;2022-08-25T21:18:03;96949.00;;;22.12;52.51
28606;BME280;46498;49.968;7.754;2022-08-25T21:23:04;96946.00;;;22.17;52.13
28606;BME280;46498;49.968;7.754;2022-08-25T21:28:09;96941.00;;;22.12;52.58
28606;BME280;46498;49.968;7.754;2022-08-25T21:33:10;96942.00;;;22.02;52.81
28606;BME280;46498;49.968;7.754;2022-08-25T21:38:11;96939.00;;;22.00;53.10
28606;BME280;46498;49.968;7.754;2022-08-25T21:43:12;96949.00;;;21.92;52.91
28606;BME280;46498;49.968;7.754;2022-08-25T21:48:13;96943.00;;;21.95;53.25
28606;BME280;46498;49.968;7.754;2022-08-25T21:53:14;96958.00;;;21.85;53.69
28606;BME280;46498;49.968;7.754;2022-08-25T21:58:15;96954.00;;;21.65;54.09
28606;BME280;46498;49.968;7.754;2022-08-25T22:03:16;96956.00;;;21.57;54.62
28606;BME280;46498;49.968;7.754;2022-08-25T22:08:17;96958.00;;;21.49;54.87
28606;BME280;46498;49.968;7.754;2022-08-25T22:13:19;96955.00;;;21.47;54.94
28606;BME280;46498;49.968;7.754;2022-08-25T22:18:20;96952.00;;;21.33;55.74
28606;BME280;46498;49.968;7.754;2022-08-25T22:23:21;96952.00;;;21.38;55.63
28606;BME280;46498;49.968;7.754;2022-08-25T22:28:28;96949.00;;;21.45;55.55
28606;BME280;46498;49.968;7.754;2022-08-25T22:33:30;96951.00;;;21.32;55.58
28606;BME280;46498;49.968;7.754;2022-08-25T22:38:31;96948.00;;;21.26;55.73
28606;BME280;46498;49.968;7.754;2022-08-25T22:43:31;96956.00;;;21.24;55.63
28606;BME280;46498;49.968;7.754;2022-08-25T22:48:33;96949.00;;;21.31;55.55
28606;BME280;46498;49.968;7.754;2022-08-25T22:53:38;96951.00;;;21.32;55.01
28606;BME280;46498;49.968;7.754;2022-08-25T22:58:39;96951.00;;;21.32;55.24
28606;BME280;46498;49.968;7.754;2022-08-25T23:03:40;96955.00;;;21.28;55.63
28606;BME280;46498;49.968;7.754;2022-08-25T23:08:45;96942.00;;;21.05;55.93
28606;BME280;46498;49.968;7.754;2022-08-25T23:13:47;96941.00;;;20.86;56.52
28606;BME280;46498;49.968;7.754;2022-08-25T23:18:48;96946.00;;;20.91;56.50
28606;BME280;46498;49.968;7.754;2022-08-25T23:23:49;96937.00;;;20.96;56.34
28606;BME280;46498;49.968;7.754;2022-08-25T23:28:51;96941.00;;;21.02;56.13
28606;BME280;46498;49.968;7.754;2022-08-25T23:33:52;96944.00;;;20.95;56.08
28606;BME280;46498;49.968;7.754;2022-08-25T23:38:53;96941.00;;;20.95;56.17
28606;BME280;46498;49.968;7.754;2022-08-25T23:43:55;96928.00;;;20.99;55.92
28606;BME280;46498;49.968;7.754;2022-08-25T23:48:56;96932.00;;;20.98;55.81
28606;BME280;46498;49.968;7.754;2022-08-25T23:54:01;96933.00;;;20.88;56.12
28606;BME280;46498;49.968;7.754;2022-08-25T23:59:05;96923.00;;;20.74;56.74
